sensor_id;sensor_type;location;lat;lon;timestamp;P1;durP1;ratioP1;P2;durP2;ratioP2
28551;SDS011;15752;49.560;8.708;2023-02-04T00:00:31;4.63;;;3.57;;
28551;SDS011;15752;49.560;8.708;2023-02-04T00:03:04;5.03;;;3.23;;
28551;SDS011;15752;49.560;8.708;2023-02-04T00:05:33;5.67;;;3.13;;
28551;SDS011;15752;49.560;8.708;2023-02-04T00:08:02;4.03;;;3.17;;
28551;SDS011;15752;49.560;8.708;2023-02-04T00:10:31;6.27;;;3.77;;
28551;SDS011;15752;49.560;8.708;2023-02-04T00:12:59;4.93;;;3.17;;
28551;SDS011;15752;49.560;8.708;2023-02-04T00:15:28;5.70;;;3.17;;
28551;SDS011;15752;49.560;8.708;2023-02-04T00:17:56;8.07;;;3.80;;
28551;SDS011;15752;49.560;8.708;2023-02-04T00:20:26;8.73;;;4.00;;
28551;SDS011;15752;49.560;8.708;2023-02-04T00:22:55;5.90;;;3.27;;
28551;SDS011;15752;49.560;8.708;2023-02-04T00:25:23;6.10;;;3.47;;
28551;SDS011;15752;49.560;8.708;2023-02-04T00:27:52;5.30;;;2.73;;
28551;SDS011;15752;49.560;8.708;2023-02-04T00:30:20;7.80;;;3.27;;
28551;SDS011;15752;49.560;8.708;2023-02-04T00:32:49;6.33;;;2.73;;
28551;SDS011;15752;49.560;8.708;2023-02-04T00:35:20;6.03;;;2.90;;
28551;SDS011;15752;49.560;8.708;2023-02-04T00:37:52;9.37;;;3.13;;
28551;SDS011;15752;49.560;8.708;2023-02-04T00:40:21;6.30;;;2.70;;
28551;SDS011;15752;49.560;8.708;2023-02-04T00:42:49;8.67;;;2.77;;
28551;SDS011;15752;49.560;8.708;2023-02-04T00:45:17;7.30;;;2.30;;
28551;SDS011;15752;49.560;8.708;2023-02-04T00:47:46;6.47;;;2.47;;
28551;SDS011;15752;49.560;8.708;2023-02-04T00:50:15;7.97;;;2.70;;
28551;SDS011;15752;49.560;8.708;2023-02-04T00:52:44;4.73;;;2.70;;
28551;SDS011;15752;49.560;8.708;2023-02-04T00:55:14;6.97;;;2.97;;
28551;SDS011;15752;49.560;8.708;2023-02-04T00:57:43;9.97;;;2.83;;
28551;SDS011;15752;49.560;8.708;2023-02-04T01:00:14;8.83;;;2.33;;
28551;SDS011;15752;49.560;8.708;2023-02-04T01:02:44;8.00;;;2.43;;
28551;SDS011;15752;49.560;8.708;2023-02-04T01:05:13;7.33;;;2.67;;
28551;SDS011;15752;49.560;8.708;2023-02-04T01:07:43;9.17;;;2.37;;
28551;SDS011;15752;49.560;8.708;2023-02-04T01:10:11;8.30;;;2.27;;
28551;SDS011;15752;49.560;8.708;2023-02-04T01:12:43;6.93;;;1.97;;
28551;SDS011;15752;49.560;8.708;2023-02-04T01:15:11;4.23;;;1.63;;
28551;SDS011;15752;49.560;8.708;2023-02-04T01:17:40;11.27;;;3.10;;
28551;SDS011;15752;49.560;8.708;2023-02-04T01:20:08;10.43;;;2.30;;
28551;SDS011;15752;49.560;8.708;2023-02-04T01:22:38;5.77;;;2.30;;
28551;SDS011;15752;49.560;8.708;2023-02-04T01:25:06;6.27;;;2.10;;
28551;SDS011;15752;49.560;8.708;2023-02-04T01:27:42;5.43;;;1.90;;
28551;SDS011;15752;49.560;8.708;2023-02-04T01:30:12;10.17;;;2.43;;
28551;SDS011;15752;49.560;8.708;2023-02-04T01:32:42;9.53;;;2.20;;
28551;SDS011;15752;49.560;8.708;2023-02-04T01:35:10;10.30;;;2.03;;
28551;SDS011;15752;49.560;8.708;2023-02-04T01:37:38;11.30;;;2.90;;
28551;SDS011;15752;49.560;8.708;2023-02-04T01:40:07;7.87;;;2.13;;
28551;SDS011;15752;49.560;8.708;2023-02-04T01:42:37;6.80;;;1.83;;
28551;SDS011;15752;49.560;8.708;2023-02-04T01:45:08;7.43;;;2.40;;
28551;SDS011;15752;49.560;8.708;2023-02-04T01:47:37;6.03;;;2.20;;
28551;SDS011;15752;49.560;8.708;2023-02-04T01:50:08;8.97;;;2.10;;
28551;SDS011;15752;49.560;8.708;2023-02-04T01:52:41;8.40;;;2.20;;
28551;SDS011;15752;49.560;8.708;2023-02-04T01:55:12;7.70;;;2.20;;
28551;SDS011;15752;49.560;8.708;2023-02-04T01:57:42;6.83;;;1.97;;
28551;SDS011;15752;49.560;8.708;2023-02-04T02:00:15;11.90;;;2.20;;
28551;SDS011;15752;49.560;8.708;2023-02-04T02:02:48;8.63;;;2.20;;
28551;SDS011;15752;49.560;8.708;2023-02-04T02:05:19;8.17;;;1.90;;
28551;SDS011;15752;49.560;8.708;2023-02-04T02:07:50;6.90;;;2.07;;
28551;SDS011;15752;49.560;8.708;2023-02-04T02:10:21;6.37;;;2.23;;
28551;SDS011;15752;49.560;8.708;2023-02-04T02:12:50;7.60;;;2.33;;
28551;SDS011;15752;49.560;8.708;2023-02-04T02:15:22;6.30;;;1.70;;
28551;SDS011;15752;49.560;8.708;2023-02-04T02:17:51;8.77;;;2.57;;
28551;SDS011;15752;49.560;8.708;2023-02-04T02:20:22;9.00;;;2.43;;
28551;SDS011;15752;49.560;8.708;2023-02-04T02:22:58;7.33;;;2.00;;
28551;SDS011;15752;49.560;8.708;2023-02-04T02:25:32;6.07;;;2.13;;
28551;SDS011;15752;49.560;8.708;2023-02-04T02:28:02;9.23;;;2.07;;
28551;SDS011;15752;49.560;8.708;2023-02-04T02:30:38;8.23;;;2.10;;
28551;SDS011;15752;49.560;8.708;2023-02-04T02:33:07;5.67;;;2.00;;
28551;SDS011;15752;49.560;8.708;2023-02-04T02:35:35;4.17;;;1.77;;
28551;SDS011;15752;49.560;8.708;2023-02-04T02:38:04;6.77;;;2.20;;
28551;SDS011;15752;49.560;8.708;2023-02-04T02:40:34;8.60;;;2.60;;
28551;SDS011;15752;49.560;8.708;2023-02-04T02:43:03;10.30;;;2.67;;
28551;SDS011;15752;49.560;8.708;2023-02-04T02:45:33;7.73;;;2.00;;
28551;SDS011;15752;49.560;8.708;2023-02-04T02:48:02;8.13;;;2.17;;
28551;SDS011;15752;49.560;8.708;2023-02-04T02:50:31;9.83;;;2.47;;
28551;SDS011;15752;49.560;8.708;2023-02-04T02:53:00;8.33;;;2.63;;
28551;SDS011;15752;49.560;8.708;2023-02-04T02:55:29;9.87;;;2.53;;
28551;SDS011;15752;49.560;8.708;2023-02-04T02:58:03;7.20;;;2.90;;
28551;SDS011;15752;49.560;8.708;2023-02-04T03:00:32;8.03;;;2.23;;
28551;SDS011;15752;49.560;8.708;2023-02-04T03:03:03;5.83;;;1.90;;
28551;SDS011;15752;49.560;8.708;2023-02-04T03:05:41;6.77;;;2.07;;
28551;SDS011;15752;49.560;8.708;2023-02-04T03:08:14;6.83;;;2.17;;
28551;SDS011;15752;49.560;8.708;2023-02-04T03:10:44;8.67;;;2.37;;
28551;SDS011;15752;49.560;8.708;2023-02-04T03:13:14;6.63;;;2.30;;
28551;SDS011;15752;49.560;8.708;2023-02-04T03:15:44;5.60;;;2.33;;
28551;SDS011;15752;49.560;8.708;2023-02-04T03:18:15;8.50;;;2.90;;
28551;SDS011;15752;49.560;8.708;2023-02-04T03:20:46;5.73;;;2.60;;
28551;SDS011;15752;49.560;8.708;2023-02-04T03:23:15;12.40;;;2.83;;
28551;SDS011;15752;49.560;8.708;2023-02-04T03:25:44;8.47;;;2.20;;
28551;SDS011;15752;49.560;8.708;2023-02-04T03:28:12;8.17;;;2.73;;
28551;SDS011;15752;49.560;8.708;2023-02-04T03:30:42;9.47;;;2.50;;
28551;SDS011;15752;49.560;8.708;2023-02-04T03:33:21;9.77;;;2.63;;
28551;SDS011;15752;49.560;8.708;2023-02-04T03:35:51;9.07;;;2.23;;
28551;SDS011;15752;49.560;8.708;2023-02-04T03:38:19;8.47;;;2.47;;
28551;SDS011;15752;49.560;8.708;2023-02-04T03:40:48;7.33;;;2.70;;
28551;SDS011;15752;49.560;8.708;2023-02-04T03:43:18;6.80;;;2.53;;
28551;SDS011;15752;49.560;8.708;2023-02-04T03:45:46;9.17;;;2.77;;
28551;SDS011;15752;49.560;8.708;2023-02-04T03:48:14;8.00;;;2.57;;
28551;SDS011;15752;49.560;8.708;2023-02-04T03:50:43;6.20;;;2.60;;
28551;SDS011;15752;49.560;8.708;2023-02-04T03:53:11;8.00;;;3.40;;
28551;SDS011;15752;49.560;8.708;2023-02-04T03:55:40;11.13;;;3.40;;
28551;SDS011;15752;49.560;8.708;2023-02-04T03:58:08;12.77;;;2.67;;
28551;SDS011;15752;49.560;8.708;2023-02-04T04:00:38;8.00;;;3.03;;
28551;SDS011;15752;49.560;8.708;2023-02-04T04:03:06;7.27;;;3.10;;
28551;SDS011;15752;49.560;8.708;2023-02-04T04:05:35;13.00;;;3.50;;
28551;SDS011;15752;49.560;8.708;2023-02-04T04:08:03;15.87;;;4.00;;
28551;SDS011;15752;49.560;8.708;2023-02-04T04:10:31;11.50;;;3.30;;
28551;SDS011;15752;49.560;8.708;2023-02-04T04:13:00;15.33;;;3.40;;
28551;SDS011;15752;49.560;8.708;2023-02-04T04:15:29;8.13;;;2.77;;
28551;SDS011;15752;49.560;8.708;2023-02-04T04:17:59;9.53;;;3.03;;
28551;SDS011;15752;49.560;8.708;2023-02-04T04:20:28;6.80;;;3.10;;
28551;SDS011;15752;49.560;8.708;2023-02-04T04:22:57;7.10;;;2.70;;
28551;SDS011;15752;49.560;8.708;2023-02-04T04:25:25;6.83;;;2.30;;
28551;SDS011;15752;49.560;8.708;2023-02-04T04:27:53;6.17;;;2.53;;
28551;SDS011;15752;49.560;8.708;2023-02-04T04:30:22;8.53;;;3.00;;
28551;SDS011;15752;49.560;8.708;2023-02-04T04:32:50;7.03;;;2.50;;
28551;SDS011;15752;49.560;8.708;2023-02-04T04:35:20;9.70;;;2.80;;
28551;SDS011;15752;49.560;8.708;2023-02-04T04:37:48;7.57;;;2.43;;
28551;SDS011;15752;49.560;8.708;2023-02-04T04:40:16;9.80;;;2.93;;
28551;SDS011;15752;49.560;8.708;2023-02-04T04:42:45;8.20;;;2.67;;
28551;SDS011;15752;49.560;8.708;2023-02-04T04:45:13;8.00;;;2.50;;
28551;SDS011;15752;49.560;8.708;2023-02-04T04:47:42;6.30;;;2.10;;
28551;SDS011;15752;49.560;8.708;2023-02-04T04:50:10;8.90;;;2.17;;
28551;SDS011;15752;49.560;8.708;2023-02-04T04:52:40;6.43;;;2.70;;
28551;SDS011;15752;49.560;8.708;2023-02-04T04:55:09;11.70;;;2.70;;
28551;SDS011;15752;49.560;8.708;2023-02-04T04:57:37;11.17;;;3.20;;
28551;SDS011;15752;49.560;8.708;2023-02-04T05:00:06;15.10;;;3.40;;
28551;SDS011;15752;49.560;8.708;2023-02-04T05:02:41;12.40;;;4.23;;
28551;SDS011;15752;49.560;8.708;2023-02-04T05:05:10;10.30;;;3.30;;
28551;SDS011;15752;49.560;8.708;2023-02-04T05:07:40;11.17;;;3.03;;
28551;SDS011;15752;49.560;8.708;2023-02-04T05:10:09;6.73;;;2.37;;
28551;SDS011;15752;49.560;8.708;2023-02-04T05:12:37;10.77;;;3.00;;
28551;SDS011;15752;49.560;8.708;2023-02-04T05:15:06;11.33;;;2.80;;
28551;SDS011;15752;49.560;8.708;2023-02-04T05:17:35;12.53;;;3.03;;
28551;SDS011;15752;49.560;8.708;2023-02-04T05:20:04;10.40;;;2.87;;
28551;SDS011;15752;49.560;8.708;2023-02-04T05:22:33;9.20;;;2.20;;
28551;SDS011;15752;49.560;8.708;2023-02-04T05:25:03;12.30;;;2.67;;
28551;SDS011;15752;49.560;8.708;2023-02-04T05:27:31;7.47;;;2.83;;
28551;SDS011;15752;49.560;8.708;2023-02-04T05:30:00;10.90;;;3.00;;
28551;SDS011;15752;49.560;8.708;2023-02-04T05:32:28;7.13;;;2.20;;
28551;SDS011;15752;49.560;8.708;2023-02-04T05:34:56;10.20;;;2.73;;
28551;SDS011;15752;49.560;8.708;2023-02-04T05:37:25;8.13;;;2.40;;
28551;SDS011;15752;49.560;8.708;2023-02-04T05:39:53;12.47;;;2.60;;
28551;SDS011;15752;49.560;8.708;2023-02-04T05:42:23;8.57;;;2.63;;
28551;SDS011;15752;49.560;8.708;2023-02-04T05:44:51;8.57;;;2.60;;
28551;SDS011;15752;49.560;8.708;2023-02-04T05:47:19;7.13;;;2.23;;
28551;SDS011;15752;49.560;8.708;2023-02-04T05:49:48;5.93;;;2.63;;
28551;SDS011;15752;49.560;8.708;2023-02-04T05:52:16;9.60;;;3.20;;
28551;SDS011;15752;49.560;8.708;2023-02-04T05:54:44;9.37;;;2.70;;
28551;SDS011;15752;49.560;8.708;2023-02-04T05:57:13;8.10;;;2.10;;
28551;SDS011;15752;49.560;8.708;2023-02-04T05:59:42;10.20;;;2.77;;
28551;SDS011;15752;49.560;8.708;2023-02-04T06:02:11;11.33;;;2.30;;
28551;SDS011;15752;49.560;8.708;2023-02-04T06:04:39;8.83;;;2.83;;
28551;SDS011;15752;49.560;8.708;2023-02-04T06:07:10;9.40;;;3.07;;
28551;SDS011;15752;49.560;8.708;2023-02-04T06:09:38;9.33;;;2.87;;
28551;SDS011;15752;49.560;8.708;2023-02-04T06:12:06;11.20;;;3.13;;
28551;SDS011;15752;49.560;8.708;2023-02-04T06:14:35;6.53;;;3.10;;
28551;SDS011;15752;49.560;8.708;2023-02-04T06:17:05;13.00;;;3.20;;
28551;SDS011;15752;49.560;8.708;2023-02-04T06:19:34;7.53;;;2.60;;
28551;SDS011;15752;49.560;8.708;2023-02-04T06:22:02;9.67;;;2.80;;
28551;SDS011;15752;49.560;8.708;2023-02-04T06:24:30;10.83;;;3.03;;
28551;SDS011;15752;49.560;8.708;2023-02-04T06:26:58;7.73;;;2.53;;
28551;SDS011;15752;49.560;8.708;2023-02-04T06:29:27;12.00;;;3.23;;
28551;SDS011;15752;49.560;8.708;2023-02-04T06:31:55;7.87;;;2.20;;
28551;SDS011;15752;49.560;8.708;2023-02-04T06:34:25;8.17;;;2.77;;
28551;SDS011;15752;49.560;8.708;2023-02-04T06:36:53;10.87;;;2.80;;
28551;SDS011;15752;49.560;8.708;2023-02-04T06:39:22;8.37;;;2.77;;
28551;SDS011;15752;49.560;8.708;2023-02-04T06:41:50;11.07;;;2.87;;
28551;SDS011;15752;49.560;8.708;2023-02-04T06:44:18;11.73;;;3.07;;
28551;SDS011;15752;49.560;8.708;2023-02-04T06:46:47;6.07;;;2.27;;
28551;SDS011;15752;49.560;8.708;2023-02-04T06:49:15;9.43;;;3.40;;
28551;SDS011;15752;49.560;8.708;2023-02-04T06:51:44;10.27;;;3.77;;
28551;SDS011;15752;49.560;8.708;2023-02-04T06:54:13;9.50;;;3.40;;
28551;SDS011;15752;49.560;8.708;2023-02-04T06:56:42;11.20;;;3.90;;
28551;SDS011;15752;49.560;8.708;2023-02-04T06:59:10;11.93;;;3.83;;
28551;SDS011;15752;49.560;8.708;2023-02-04T07:01:38;9.60;;;4.17;;
28551;SDS011;15752;49.560;8.708;2023-02-04T07:04:07;8.67;;;3.77;;
28551;SDS011;15752;49.560;8.708;2023-02-04T07:06:35;10.17;;;3.77;;
28551;SDS011;15752;49.560;8.708;2023-02-04T07:09:05;8.20;;;3.13;;
28551;SDS011;15752;49.560;8.708;2023-02-04T07:11:33;8.93;;;3.20;;
28551;SDS011;15752;49.560;8.708;2023-02-04T07:14:01;12.90;;;4.00;;
28551;SDS011;15752;49.560;8.708;2023-02-04T07:16:30;12.70;;;3.63;;
28551;SDS011;15752;49.560;8.708;2023-02-04T07:18:58;9.83;;;3.03;;
28551;SDS011;15752;49.560;8.708;2023-02-04T07:21:26;9.23;;;2.87;;
28551;SDS011;15752;49.560;8.708;2023-02-04T07:23:54;12.33;;;2.80;;
28551;SDS011;15752;49.560;8.708;2023-02-04T07:26:24;8.93;;;3.10;;
28551;SDS011;15752;49.560;8.708;2023-02-04T07:28:52;12.30;;;3.30;;
28551;SDS011;15752;49.560;8.708;2023-02-04T07:31:21;9.80;;;2.90;;
28551;SDS011;15752;49.560;8.708;2023-02-04T07:33:49;12.33;;;3.03;;
28551;SDS011;15752;49.560;8.708;2023-02-04T07:36:18;7.90;;;2.70;;
28551;SDS011;15752;49.560;8.708;2023-02-04T07:38:46;9.73;;;3.40;;
28551;SDS011;15752;49.560;8.708;2023-02-04T07:41:15;13.63;;;3.73;;
28551;SDS011;15752;49.560;8.708;2023-02-04T07:43:44;9.33;;;3.97;;
28551;SDS011;15752;49.560;8.708;2023-02-04T07:46:13;9.37;;;2.93;;
28551;SDS011;15752;49.560;8.708;2023-02-04T07:48:41;9.80;;;2.87;;
28551;SDS011;15752;49.560;8.708;2023-02-04T07:51:09;7.57;;;3.00;;
28551;SDS011;15752;49.560;8.708;2023-02-04T07:53:38;6.13;;;2.17;;
28551;SDS011;15752;49.560;8.708;2023-02-04T07:56:06;6.80;;;3.53;;
28551;SDS011;15752;49.560;8.708;2023-02-04T07:58:34;10.37;;;3.30;;
28551;SDS011;15752;49.560;8.708;2023-02-04T08:01:05;11.73;;;3.97;;
28551;SDS011;15752;49.560;8.708;2023-02-04T08:03:33;7.70;;;3.27;;
28551;SDS011;15752;49.560;8.708;2023-02-04T08:06:02;7.60;;;3.23;;
28551;SDS011;15752;49.560;8.708;2023-02-04T08:08:31;10.67;;;3.83;;
28551;SDS011;15752;49.560;8.708;2023-02-04T08:10:59;8.87;;;3.97;;
28551;SDS011;15752;49.560;8.708;2023-02-04T08:13:27;15.27;;;5.33;;
28551;SDS011;15752;49.560;8.708;2023-02-04T08:15:56;10.67;;;5.03;;
28551;SDS011;15752;49.560;8.708;2023-02-04T08:18:25;14.83;;;5.80;;
28551;SDS011;15752;49.560;8.708;2023-02-04T08:20:54;13.03;;;5.00;;
28551;SDS011;15752;49.560;8.708;2023-02-04T08:23:22;12.13;;;5.33;;
28551;SDS011;15752;49.560;8.708;2023-02-04T08:25:51;11.57;;;5.20;;
28551;SDS011;15752;49.560;8.708;2023-02-04T08:28:19;12.97;;;5.70;;
28551;SDS011;15752;49.560;8.708;2023-02-04T08:30:47;9.67;;;5.10;;
28551;SDS011;15752;49.560;8.708;2023-02-04T08:33:16;19.87;;;5.37;;
28551;SDS011;15752;49.560;8.708;2023-02-04T08:35:46;10.73;;;5.40;;
28551;SDS011;15752;49.560;8.708;2023-02-04T08:38:15;13.33;;;5.90;;
28551;SDS011;15752;49.560;8.708;2023-02-04T08:40:44;14.33;;;6.13;;
28551;SDS011;15752;49.560;8.708;2023-02-04T08:43:12;22.73;;;8.57;;
28551;SDS011;15752;49.560;8.708;2023-02-04T08:48:35;16.50;;;8.27;;
28551;SDS011;15752;49.560;8.708;2023-02-04T08:51:05;16.93;;;7.40;;
28551;SDS011;15752;49.560;8.708;2023-02-04T08:53:33;17.83;;;6.90;;
28551;SDS011;15752;49.560;8.708;2023-02-04T08:56:03;16.10;;;6.40;;
28551;SDS011;15752;49.560;8.708;2023-02-04T08:58:32;14.30;;;6.03;;
28551;SDS011;15752;49.560;8.708;2023-02-04T09:01:00;19.33;;;6.67;;
28551;SDS011;15752;49.560;8.708;2023-02-04T09:03:29;20.87;;;7.17;;
28551;SDS011;15752;49.560;8.708;2023-02-04T09:05:58;15.20;;;5.70;;
28551;SDS011;15752;49.560;8.708;2023-02-04T09:08:27;16.83;;;6.07;;
28551;SDS011;15752;49.560;8.708;2023-02-04T09:10:56;11.90;;;4.70;;
28551;SDS011;15752;49.560;8.708;2023-02-04T09:13:24;11.53;;;3.77;;
28551;SDS011;15752;49.560;8.708;2023-02-04T09:15:52;12.87;;;4.13;;
28551;SDS011;15752;49.560;8.708;2023-02-04T09:18:21;12.33;;;4.20;;
28551;SDS011;15752;49.560;8.708;2023-02-04T09:20:51;19.87;;;4.70;;
28551;SDS011;15752;49.560;8.708;2023-02-04T09:23:19;19.47;;;4.20;;
28551;SDS011;15752;49.560;8.708;2023-02-04T09:25:50;13.17;;;4.00;;
28551;SDS011;15752;49.560;8.708;2023-02-04T09:28:19;11.73;;;3.43;;
28551;SDS011;15752;49.560;8.708;2023-02-04T09:30:47;13.03;;;3.50;;
28551;SDS011;15752;49.560;8.708;2023-02-04T09:33:15;9.73;;;3.30;;
28551;SDS011;15752;49.560;8.708;2023-02-04T09:35:44;12.03;;;3.80;;
28551;SDS011;15752;49.560;8.708;2023-02-04T09:38:12;13.53;;;3.53;;
28551;SDS011;15752;49.560;8.708;2023-02-04T09:40:41;11.03;;;3.20;;
28551;SDS011;15752;49.560;8.708;2023-02-04T09:43:16;11.23;;;3.17;;
28551;SDS011;15752;49.560;8.708;2023-02-04T09:45:50;12.87;;;3.03;;
28551;SDS011;15752;49.560;8.708;2023-02-04T09:48:19;11.53;;;3.10;;
28551;SDS011;15752;49.560;8.708;2023-02-04T09:50:49;9.17;;;3.00;;
28551;SDS011;15752;49.560;8.708;2023-02-04T09:53:19;11.03;;;3.43;;
28551;SDS011;15752;49.560;8.708;2023-02-04T09:55:50;13.17;;;4.77;;
28551;SDS011;15752;49.560;8.708;2023-02-04T09:58:21;13.83;;;3.37;;
28551;SDS011;15752;49.560;8.708;2023-02-04T10:00:55;14.00;;;3.20;;
28551;SDS011;15752;49.560;8.708;2023-02-04T10:03:28;13.20;;;3.17;;
28551;SDS011;15752;49.560;8.708;2023-02-04T10:05:56;14.93;;;2.90;;
28551;SDS011;15752;49.560;8.708;2023-02-04T10:08:26;19.20;;;4.07;;
28551;SDS011;15752;49.560;8.708;2023-02-04T10:10:56;12.87;;;3.37;;
28551;SDS011;15752;49.560;8.708;2023-02-04T10:13:29;12.43;;;3.80;;
28551;SDS011;15752;49.560;8.708;2023-02-04T10:15:59;11.23;;;3.13;;
28551;SDS011;15752;49.560;8.708;2023-02-04T10:18:30;10.10;;;2.80;;
28551;SDS011;15752;49.560;8.708;2023-02-04T10:21:07;9.77;;;2.27;;
28551;SDS011;15752;49.560;8.708;2023-02-04T10:23:42;7.90;;;2.00;;
28551;SDS011;15752;49.560;8.708;2023-02-04T10:26:14;9.83;;;2.80;;
28551;SDS011;15752;49.560;8.708;2023-02-04T10:28:45;9.63;;;2.73;;
28551;SDS011;15752;49.560;8.708;2023-02-04T10:31:25;8.90;;;2.80;;
28551;SDS011;15752;49.560;8.708;2023-02-04T10:34:04;8.73;;;2.80;;
28551;SDS011;15752;49.560;8.708;2023-02-04T10:36:37;9.23;;;2.60;;
28551;SDS011;15752;49.560;8.708;2023-02-04T10:39:10;8.60;;;1.87;;
28551;SDS011;15752;49.560;8.708;2023-02-04T10:41:45;7.80;;;2.30;;
28551;SDS011;15752;49.560;8.708;2023-02-04T10:44:18;11.10;;;2.93;;
28551;SDS011;15752;49.560;8.708;2023-02-04T10:46:57;8.20;;;2.77;;
28551;SDS011;15752;49.560;8.708;2023-02-04T10:49:26;11.57;;;2.93;;
28551;SDS011;15752;49.560;8.708;2023-02-04T10:51:55;9.13;;;2.20;;
28551;SDS011;15752;49.560;8.708;2023-02-04T10:54:24;7.10;;;2.23;;
28551;SDS011;15752;49.560;8.708;2023-02-04T10:56:59;8.83;;;2.73;;
28551;SDS011;15752;49.560;8.708;2023-02-04T10:59:41;12.37;;;2.90;;
28551;SDS011;15752;49.560;8.708;2023-02-04T11:02:21;10.10;;;2.60;;
28551;SDS011;15752;49.560;8.708;2023-02-04T11:05:10;11.33;;;2.30;;
28551;SDS011;15752;49.560;8.708;2023-02-04T11:07:41;8.13;;;2.27;;
28551;SDS011;15752;49.560;8.708;2023-02-04T11:10:12;6.97;;;1.83;;
28551;SDS011;15752;49.560;8.708;2023-02-04T11:12:43;13.07;;;3.17;;
28551;SDS011;15752;49.560;8.708;2023-02-04T11:18:24;10.23;;;2.10;;
28551;SDS011;15752;49.560;8.708;2023-02-04T11:20:56;10.40;;;2.63;;
28551;SDS011;15752;49.560;8.708;2023-02-04T11:23:33;9.47;;;2.30;;
28551;SDS011;15752;49.560;8.708;2023-02-04T11:26:04;7.33;;;2.03;;
28551;SDS011;15752;49.560;8.708;2023-02-04T11:31:55;5.83;;;2.20;;
28551;SDS011;15752;49.560;8.708;2023-02-04T11:34:28;7.17;;;2.37;;
28551;SDS011;15752;49.560;8.708;2023-02-04T11:40:00;9.17;;;2.57;;
28551;SDS011;15752;49.560;8.708;2023-02-04T11:42:48;9.30;;;2.17;;
28551;SDS011;15752;49.560;8.708;2023-02-04T11:45:19;10.50;;;2.30;;
28551;SDS011;15752;49.560;8.708;2023-02-04T11:47:52;7.50;;;1.83;;
28551;SDS011;15752;49.560;8.708;2023-02-04T11:50:25;6.77;;;1.60;;
28551;SDS011;15752;49.560;8.708;2023-02-04T11:52:56;10.23;;;2.43;;
28551;SDS011;15752;49.560;8.708;2023-02-04T11:55:27;9.70;;;2.07;;
28551;SDS011;15752;49.560;8.708;2023-02-04T11:57:57;10.03;;;2.90;;
28551;SDS011;15752;49.560;8.708;2023-02-04T12:00:27;10.70;;;2.80;;
28551;SDS011;15752;49.560;8.708;2023-02-04T12:02:59;9.43;;;3.00;;
28551;SDS011;15752;49.560;8.708;2023-02-04T12:05:36;8.43;;;2.60;;
28551;SDS011;15752;49.560;8.708;2023-02-04T12:08:08;5.50;;;2.17;;
28551;SDS011;15752;49.560;8.708;2023-02-04T12:10:46;9.13;;;2.53;;
28551;SDS011;15752;49.560;8.708;2023-02-04T12:13:16;6.90;;;2.17;;
28551;SDS011;15752;49.560;8.708;2023-02-04T12:15:57;8.53;;;3.00;;
28551;SDS011;15752;49.560;8.708;2023-02-04T12:18:29;11.87;;;2.83;;
28551;SDS011;15752;49.560;8.708;2023-02-04T12:20:59;9.67;;;2.67;;
28551;SDS011;15752;49.560;8.708;2023-02-04T12:23:29;9.63;;;2.00;;
28551;SDS011;15752;49.560;8.708;2023-02-04T12:25:59;7.73;;;2.47;;
28551;SDS011;15752;49.560;8.708;2023-02-04T12:28:27;9.57;;;2.30;;
28551;SDS011;15752;49.560;8.708;2023-02-04T12:30:56;5.50;;;2.23;;
28551;SDS011;15752;49.560;8.708;2023-02-04T12:33:25;6.50;;;1.90;;
28551;SDS011;15752;49.560;8.708;2023-02-04T12:35:55;7.00;;;2.07;;
28551;SDS011;15752;49.560;8.708;2023-02-04T12:38:23;11.83;;;2.17;;
28551;SDS011;15752;49.560;8.708;2023-02-04T12:40:53;8.27;;;2.20;;
28551;SDS011;15752;49.560;8.708;2023-02-04T12:43:23;9.57;;;2.70;;
28551;SDS011;15752;49.560;8.708;2023-02-04T12:45:53;7.97;;;2.20;;
28551;SDS011;15752;49.560;8.708;2023-02-04T12:48:22;8.37;;;1.67;;
28551;SDS011;15752;49.560;8.708;2023-02-04T12:50:51;7.87;;;1.80;;
28551;SDS011;15752;49.560;8.708;2023-02-04T12:53:21;7.00;;;1.73;;
28551;SDS011;15752;49.560;8.708;2023-02-04T12:55:49;6.87;;;1.87;;
28551;SDS011;15752;49.560;8.708;2023-02-04T12:58:18;7.27;;;2.17;;
28551;SDS011;15752;49.560;8.708;2023-02-04T13:00:46;5.30;;;1.70;;
28551;SDS011;15752;49.560;8.708;2023-02-04T13:03:15;5.90;;;1.90;;
28551;SDS011;15752;49.560;8.708;2023-02-04T13:05:43;8.67;;;2.63;;
28551;SDS011;15752;49.560;8.708;2023-02-04T13:08:11;6.13;;;1.93;;
28551;SDS011;15752;49.560;8.708;2023-02-04T13:10:41;6.80;;;2.20;;
28551;SDS011;15752;49.560;8.708;2023-02-04T13:13:10;7.83;;;2.03;;
28551;SDS011;15752;49.560;8.708;2023-02-04T13:15:38;7.90;;;1.60;;
28551;SDS011;15752;49.560;8.708;2023-02-04T13:18:07;8.50;;;1.93;;
28551;SDS011;15752;49.560;8.708;2023-02-04T13:20:35;4.77;;;1.97;;
28551;SDS011;15752;49.560;8.708;2023-02-04T13:23:04;3.67;;;1.83;;
28551;SDS011;15752;49.560;8.708;2023-02-04T13:25:32;9.47;;;1.80;;
28551;SDS011;15752;49.560;8.708;2023-02-04T13:28:02;8.80;;;2.00;;
28551;SDS011;15752;49.560;8.708;2023-02-04T13:30:31;7.57;;;2.40;;
28551;SDS011;15752;49.560;8.708;2023-02-04T13:32:59;4.73;;;1.87;;
28551;SDS011;15752;49.560;8.708;2023-02-04T13:35:28;5.83;;;1.87;;
28551;SDS011;15752;49.560;8.708;2023-02-04T13:37:57;4.87;;;1.60;;
28551;SDS011;15752;49.560;8.708;2023-02-04T13:40:26;5.37;;;1.90;;
28551;SDS011;15752;49.560;8.708;2023-02-04T13:42:54;5.57;;;1.87;;
28551;SDS011;15752;49.560;8.708;2023-02-04T13:45:24;6.73;;;1.33;;
28551;SDS011;15752;49.560;8.708;2023-02-04T13:47:53;4.30;;;1.50;;
28551;SDS011;15752;49.560;8.708;2023-02-04T13:50:21;4.73;;;1.70;;
28551;SDS011;15752;49.560;8.708;2023-02-04T13:52:50;6.83;;;1.90;;
28551;SDS011;15752;49.560;8.708;2023-02-04T13:55:18;5.67;;;1.47;;
28551;SDS011;15752;49.560;8.708;2023-02-04T13:57:47;7.40;;;1.60;;
28551;SDS011;15752;49.560;8.708;2023-02-04T14:00:15;4.47;;;1.20;;
28551;SDS011;15752;49.560;8.708;2023-02-04T14:02:45;5.40;;;1.70;;
28551;SDS011;15752;49.560;8.708;2023-02-04T14:05:15;5.17;;;1.70;;
28551;SDS011;15752;49.560;8.708;2023-02-04T14:07:43;6.30;;;1.67;;
28551;SDS011;15752;49.560;8.708;2023-02-04T14:10:12;7.73;;;2.03;;
28551;SDS011;15752;49.560;8.708;2023-02-04T14:12:40;6.60;;;2.23;;
28551;SDS011;15752;49.560;8.708;2023-02-04T14:15:09;4.87;;;1.70;;
28551;SDS011;15752;49.560;8.708;2023-02-04T14:17:38;6.63;;;2.00;;
28551;SDS011;15752;49.560;8.708;2023-02-04T14:20:08;6.33;;;2.07;;
28551;SDS011;15752;49.560;8.708;2023-02-04T14:22:38;7.17;;;1.63;;
28551;SDS011;15752;49.560;8.708;2023-02-04T14:25:06;7.87;;;2.30;;
28551;SDS011;15752;49.560;8.708;2023-02-04T14:27:35;6.23;;;1.83;;
28551;SDS011;15752;49.560;8.708;2023-02-04T14:30:09;6.10;;;1.80;;
28551;SDS011;15752;49.560;8.708;2023-02-04T14:32:43;8.80;;;2.57;;
28551;SDS011;15752;49.560;8.708;2023-02-04T14:35:14;6.40;;;1.70;;
28551;SDS011;15752;49.560;8.708;2023-02-04T14:37:44;5.93;;;2.20;;
28551;SDS011;15752;49.560;8.708;2023-02-04T14:40:13;5.97;;;1.93;;
28551;SDS011;15752;49.560;8.708;2023-02-04T14:42:43;7.97;;;2.00;;
28551;SDS011;15752;49.560;8.708;2023-02-04T14:45:12;6.07;;;1.67;;
28551;SDS011;15752;49.560;8.708;2023-02-04T14:47:41;6.63;;;2.13;;
28551;SDS011;15752;49.560;8.708;2023-02-04T14:50:12;7.10;;;2.47;;
28551;SDS011;15752;49.560;8.708;2023-02-04T14:52:43;5.97;;;1.77;;
28551;SDS011;15752;49.560;8.708;2023-02-04T14:55:11;9.73;;;2.20;;
28551;SDS011;15752;49.560;8.708;2023-02-04T14:57:40;6.40;;;1.93;;
28551;SDS011;15752;49.560;8.708;2023-02-04T15:00:09;5.23;;;1.93;;
28551;SDS011;15752;49.560;8.708;2023-02-04T15:02:39;8.53;;;2.50;;
28551;SDS011;15752;49.560;8.708;2023-02-04T15:05:08;9.80;;;2.47;;
28551;SDS011;15752;49.560;8.708;2023-02-04T15:07:38;9.10;;;1.90;;
28551;SDS011;15752;49.560;8.708;2023-02-04T15:10:08;6.13;;;1.87;;